Time;durP1;ratioP1;P1;durP2;ratioP2;P2;SDS_P1;SDS_P2;PMS_P1;PMS_P2;Temp;Humidity;BMP_temperature;BMP_pressure;BME280_temperature;BME280_humidity;BME280_pressure;Samples;Min_cycle;Max_cycle;Signal;HPM_P1;HPM_P2
2024/03/09 00:00:23;;;;;;;39.85;22.58;;;6.10;99.90;;;;;;5030786;28;20042;-62
2024/03/09 00:02:50;;;;;;;37.65;22.65;;;6.10;99.90;;;;;;5029255;28;20129;-62
2024/03/09 00:05:17;;;;;;;39.67;22.65;;;6.10;99.90;;;;;;5034339;28;20124;-63
2024/03/09 00:07:44;;;;;;;41.38;23.00;;;6.10;99.90;;;;;;5021915;28;20050;-63
2024/03/09 00:10:11;;;;;;;37.28;22.58;;;6.10;99.90;;;;;;5015718;28;20050;-63
2024/03/09 00:12:38;;;;;;;35.63;22.00;;;6.10;99.90;;;;;;5030638;28;20049;-63
2024/03/09 00:15:06;;;;;;;38.17;23.10;;;6.10;99.90;;;;;;5034820;28;20041;-62
2024/03/09 00:17:33;;;;;;;35.58;21.42;;;6.10;99.90;;;;;;5035521;28;20068;-63
2024/03/09 00:20:00;;;;;;;34.28;22.75;;;6.10;99.90;;;;;;5035728;28;20112;-63
2024/03/09 00:22:27;;;;;;;37.00;22.10;;;6.10;99.90;;;;;;5035173;28;20042;-63
2024/03/09 00:24:54;;;;;;;37.08;22.05;;;6.10;99.90;;;;;;5033936;28;20072;-63
2024/03/09 00:27:24;;;;;;;37.72;22.63;;;6.10;99.90;;;;;;5035153;28;20574;-65
2024/03/09 00:29:51;;;;;;;34.22;21.60;;;6.10;99.90;;;;;;5034817;28;20052;-64
2024/03/09 00:32:17;;;;;;;45.72;22.77;;;6.10;99.90;;;;;;5035115;28;20045;-65
2024/03/09 00:34:44;;;;;;;36.35;22.98;;;6.10;99.90;;;;;;5034811;28;20040;-65
2024/03/09 00:37:12;;;;;;;35.50;21.73;;;6.10;99.90;;;;;;5034467;28;20033;-63
2024/03/09 00:39:39;;;;;;;34.33;21.48;;;6.10;99.90;;;;;;5033601;28;20080;-62
2024/03/09 00:42:08;;;;;;;34.03;21.33;;;6.10;99.90;;;;;;5034474;28;20599;-62
2024/03/09 00:44:38;;;;;;;32.55;21.60;;;6.10;99.90;;;;;;5033235;28;20095;-62
2024/03/09 00:47:04;;;;;;;40.85;23.17;;;6.10;99.90;;;;;;5034463;28;20065;-62
2024/03/09 00:49:31;;;;;;;32.40;21.48;;;6.20;99.90;;;;;;5034284;28;20470;-63
2024/03/09 00:51:58;;;;;;;29.63;20.80;;;6.10;99.90;;;;;;5034373;28;20128;-63
2024/03/09 00:54:25;;;;;;;32.05;21.10;;;6.20;99.90;;;;;;5034179;28;20063;-63
2024/03/09 00:56:52;;;;;;;38.72;22.30;;;6.20;99.90;;;;;;5034150;28;20038;-63
2024/03/09 00:59:19;;;;;;;33.35;21.83;;;6.20;99.90;;;;;;5034187;28;20116;-62
2024/03/09 01:01:49;;;;;;;32.33;21.65;;;6.20;99.90;;;;;;5034502;28;20106;-62
2024/03/09 01:04:16;;;;;;;36.92;21.80;;;6.20;99.90;;;;;;5034423;28;20115;-62
2024/03/09 01:06:43;;;;;;;35.75;21.20;;;6.30;99.90;;;;;;5034254;28;20111;-62
2024/03/09 01:09:10;;;;;;;34.22;21.30;;;6.30;99.90;;;;;;5033702;28;20048;-62
2024/03/09 01:11:38;;;;;;;37.55;21.45;;;6.30;99.90;;;;;;5019042;28;20041;-63
2024/03/09 01:14:06;;;;;;;39.15;21.50;;;6.30;99.90;;;;;;5014144;28;20070;-62
2024/03/09 01:16:32;;;;;;;34.25;20.85;;;6.30;99.90;;;;;;5014075;28;20096;-62
2024/03/09 01:18:59;;;;;;;32.20;21.05;;;6.30;99.90;;;;;;5014306;28;20149;-62
2024/03/09 01:21:29;;;;;;;35.92;21.00;;;6.30;99.90;;;;;;5014342;28;20095;-62
2024/03/09 01:23:56;;;;;;;35.00;21.33;;;6.30;99.90;;;;;;5014432;28;20454;-63
2024/03/09 01:26:24;;;;;;;34.22;21.48;;;6.30;99.90;;;;;;5014048;28;20479;-63
2024/03/09 01:28:51;;;;;;;29.27;20.73;;;6.30;99.90;;;;;;5012850;28;20128;-63
2024/03/09 01:31:18;;;;;;;34.33;20.92;;;6.30;99.90;;;;;;5012656;28;20077;-63
2024/03/09 01:33:45;;;;;;;32.15;21.30;;;6.30;99.90;;;;;;5014163;28;20049;-63
2024/03/09 01:36:12;;;;;;;36.25;21.90;;;6.20;99.90;;;;;;5013985;28;20133;-63
2024/03/09 01:38:42;;;;;;;35.13;21.52;;;6.20;99.90;;;;;;5013894;28;20480;-63
2024/03/09 01:41:08;;;;;;;34.95;21.65;;;6.20;99.90;;;;;;5013881;28;20148;-63
2024/03/09 01:43:35;;;;;;;38.90;21.58;;;6.20;99.90;;;;;;5013991;28;20476;-63
2024/03/09 01:46:03;;;;;;;34.50;21.90;;;6.30;99.90;;;;;;5013667;28;20125;-63
2024/03/09 01:48:30;;;;;;;31.95;21.27;;;6.30;99.90;;;;;;5013472;28;20045;-63
2024/03/09 01:50:56;;;;;;;32.85;20.83;;;6.30;99.90;;;;;;5013779;28;20376;-64
2024/03/09 01:53:23;;;;;;;34.45;21.00;;;6.30;99.90;;;;;;5013819;28;20121;-63
2024/03/09 01:55:50;;;;;;;37.00;21.10;;;6.30;99.90;;;;;;5013208;28;20042;-63
2024/03/09 01:58:19;;;;;;;38.45;21.67;;;6.30;99.90;;;;;;5012199;28;20050;-64
2024/03/09 02:00:50;;;;;;;34.17;21.50;;;6.30;99.90;;;;;;5013271;28;20049;-64
2024/03/09 02:03:19;;;;;;;31.65;21.92;;;6.30;99.90;;;;;;5013513;28;20052;-64
2024/03/09 02:05:47;;;;;;;30.65;20.13;;;6.30;99.90;;;;;;5013053;28;20052;-63
2024/03/09 02:08:15;;;;;;;33.80;20.80;;;6.20;99.90;;;;;;5013659;28;20367;-63
2024/03/09 02:10:42;;;;;;;36.20;20.48;;;6.20;99.90;;;;;;5014196;28;20042;-63
2024/03/09 02:13:10;;;;;;;31.58;21.42;;;6.20;99.90;;;;;;5013783;28;20053;-64
2024/03/09 02:15:38;;;;;;;32.92;20.58;;;6.20;99.90;;;;;;5012095;28;20443;-63
2024/03/09 02:18:06;;;;;;;29.52;20.27;;;6.20;99.90;;;;;;5013660;28;20081;-64
2024/03/09 02:20:33;;;;;;;34.28;21.17;;;6.20;99.90;;;;;;5015652;28;20066;-63
2024/03/09 02:22:59;;;;;;;28.98;20.35;;;6.20;99.90;;;;;;5017204;28;20098;-66
2024/03/09 02:25:26;;;;;;;34.13;20.27;;;6.20;99.90;;;;;;5016988;28;20140;-64
2024/03/09 02:27:53;;;;;;;35.55;20.88;;;6.20;99.90;;;;;;5017313;28;20121;-64
2024/03/09 02:30:24;;;;;;;26.63;19.85;;;6.20;99.90;;;;;;5017562;28;20495;-64
2024/03/09 02:32:53;;;;;;;30.85;20.20;;;6.20;99.90;;;;;;5015963;28;20445;-63
2024/03/09 02:35:20;;;;;;;36.45;21.23;;;6.20;99.90;;;;;;5017367;28;20044;-63
2024/03/09 02:37:47;;;;;;;33.22;21.20;;;6.20;99.90;;;;;;5017143;28;20042;-64
2024/03/09 02:40:14;;;;;;;31.30;20.73;;;6.20;99.90;;;;;;5017035;28;20520;-64
2024/03/09 02:43:03;;;;;;;30.83;20.55;;;6.20;99.90;;;;;;5017012;28;20052;-63
2024/03/09 02:45:28;;;;;;;33.33;18.90;;;6.20;99.90;;;;;;5017125;28;20048;-64
2024/03/09 02:47:54;;;;;;;28.42;19.33;;;6.30;99.90;;;;;;5016949;28;20041;-64
2024/03/09 02:50:24;;;;;;;30.48;18.05;;;6.30;99.90;;;;;;5017852;28;20048;-64
2024/03/09 02:52:51;;;;;;;27.42;19.17;;;6.30;99.90;;;;;;5016835;28;20056;-64
2024/03/09 02:55:18;;;;;;;24.60;18.65;;;6.40;99.90;;;;;;5016911;28;20113;-63
2024/03/09 02:57:46;;;;;;;27.88;17.65;;;6.40;99.90;;;;;;5016449;28;20060;-65
2024/03/09 03:00:13;;;;;;;26.90;16.55;;;6.50;99.90;;;;;;5016572;28;20042;-64
2024/03/09 03:05:25;;;;;;;22.15;14.55;;;6.50;99.90;;;;;;5016187;28;20046;-66
2024/03/09 03:07:53;;;;;;;22.58;14.60;;;6.70;99.90;;;;;;5016391;28;20046;-66
2024/03/09 03:10:20;;;;;;;20.55;14.07;;;6.70;99.90;;;;;;5016294;28;20049;-67
2024/03/09 03:12:47;;;;;;;18.88;13.75;;;6.80;99.90;;;;;;5016932;28;20042;-66
2024/03/09 03:15:14;;;;;;;21.50;13.90;;;6.90;99.90;;;;;;5016105;28;20073;-66
2024/03/09 03:17:41;;;;;;;22.08;14.55;;;7.00;99.90;;;;;;5016621;28;20037;-65
2024/03/09 03:20:13;;;;;;;18.52;13.27;;;7.00;99.90;;;;;;5015126;28;20053;-66
2024/03/09 03:22:40;;;;;;;18.65;13.68;;;7.00;99.90;;;;;;5016255;28;20033;-66
2024/03/09 03:25:10;;;;;;;23.00;13.57;;;7.10;99.90;;;;;;5016355;28;20042;-66
2024/03/09 03:27:37;;;;;;;20.27;14.05;;;7.20;99.90;;;;;;5016454;28;20042;-65
2024/03/09 03:30:04;;;;;;;18.17;13.77;;;7.20;99.90;;;;;;5016655;28;20046;-66
2024/03/09 03:32:30;;;;;;;22.50;13.95;;;7.20;99.90;;;;;;5015643;28;20057;-66
2024/03/09 03:34:57;;;;;;;21.13;13.85;;;7.20;99.90;;;;;;5015914;28;20060;-66
2024/03/09 03:37:24;;;;;;;23.45;14.95;;;7.20;99.90;;;;;;5016115;28;20479;-65
2024/03/09 03:39:51;;;;;;;18.70;13.52;;;7.20;99.90;;;;;;5016055;28;20034;-66
2024/03/09 03:42:18;;;;;;;17.70;13.35;;;7.20;99.90;;;;;;5016124;28;20498;-65
2024/03/09 03:44:44;;;;;;;18.45;13.45;;;7.20;99.90;;;;;;5016193;28;20116;-66
2024/03/09 03:47:13;;;;;;;19.30;13.40;;;7.20;99.90;;;;;;5015817;28;20099;-66
2024/03/09 03:49:40;;;;;;;18.27;13.75;;;7.20;99.90;;;;;;5016211;28;20045;-66
2024/03/09 03:52:08;;;;;;;19.35;13.32;;;7.20;99.90;;;;;;5016057;28;20505;-66
2024/03/09 03:54:39;;;;;;;16.20;12.70;;;7.10;99.90;;;;;;5015956;28;20458;-66
2024/03/09 03:57:06;;;;;;;19.05;12.65;;;7.10;99.90;;;;;;5025209;28;20551;-63
2024/03/09 03:59:35;;;;;;;21.02;12.27;;;7.10;99.90;;;;;;5035194;28;20395;-63
2024/03/09 04:02:03;;;;;;;15.75;11.60;;;7.10;99.90;;;;;;5035193;28;20120;-63
2024/03/09 04:04:30;;;;;;;17.17;12.23;;;7.10;99.90;;;;;;5035465;28;20120;-63
2024/03/09 04:06:57;;;;;;;17.00;11.68;;;7.10;99.90;;;;;;5035280;28;20046;-63
2024/03/09 04:09:24;;;;;;;14.13;11.32;;;7.10;99.90;;;;;;5035276;28;20050;-63
2024/03/09 04:11:51;;;;;;;16.25;11.77;;;7.10;99.90;;;;;;5034935;28;20593;-63
2024/03/09 04:14:18;;;;;;;19.95;12.60;;;7.10;99.90;;;;;;5033893;28;20041;-63
2024/03/09 04:16:45;;;;;;;18.17;10.75;;;7.10;99.90;;;;;;5035072;28;20065;-63
2024/03/09 04:19:13;;;;;;;15.75;10.88;;;7.20;99.90;;;;;;5034750;28;20479;-66
2024/03/09 04:21:40;;;;;;;17.67;11.25;;;7.20;99.90;;;;;;5034792;28;20479;-63
2024/03/09 04:24:09;;;;;;;15.55;10.02;;;7.30;99.90;;;;;;5035371;28;20467;-63
2024/03/09 04:26:36;;;;;;;15.30;10.63;;;7.30;99.90;;;;;;5035111;28;20038;-63
2024/03/09 04:29:03;;;;;;;16.80;10.15;;;7.30;99.90;;;;;;5034854;28;20056;-63
2024/03/09 04:31:32;;;;;;;19.90;10.32;;;7.30;99.90;;;;;;5034812;28;20045;-63
2024/03/09 04:34:03;;;;;;;15.52;9.65;;;7.40;99.90;;;;;;5034697;28;20072;-63
2024/03/09 04:36:29;;;;;;;16.98;10.32;;;7.40;99.90;;;;;;5034373;28;20041;-63
2024/03/09 04:39:00;;;;;;;14.10;9.35;;;7.40;99.90;;;;;;5034435;28;20394;-63
2024/03/09 04:41:32;;;;;;;13.35;8.80;;;7.40;99.90;;;;;;5034934;28;20202;-63
2024/03/09 04:44:00;;;;;;;13.75;8.88;;;7.40;99.90;;;;;;5033590;28;20042;-64
2024/03/09 04:46:27;;;;;;;11.40;7.88;;;7.50;99.90;;;;;;5034651;28;20065;-64
2024/03/09 04:48:54;;;;;;;12.70;7.78;;;7.50;99.90;;;;;;5034282;28;20073;-64
2024/03/09 04:51:22;;;;;;;10.50;7.40;;;7.60;99.90;;;;;;5034209;28;20045;-64
2024/03/09 04:53:51;;;;;;;12.57;6.85;;;7.60;99.90;;;;;;5034050;28;20045;-64
2024/03/09 04:56:19;;;;;;;10.50;6.00;;;7.60;99.90;;;;;;5034100;28;20332;-64
2024/03/09 04:58:47;;;;;;;9.32;5.97;;;7.60;99.90;;;;;;5034165;28;20033;-63
2024/03/09 05:01:14;;;;;;;11.43;6.35;;;7.70;99.90;;;;;;5034830;28;20042;-63
2024/03/09 05:03:41;;;;;;;10.65;6.60;;;7.70;99.90;;;;;;5034151;28;20037;-64
2024/03/09 05:06:08;;;;;;;12.30;6.30;;;7.80;99.90;;;;;;5033722;28;20049;-64
2024/03/09 05:08:36;;;;;;;9.68;6.05;;;7.80;99.90;;;;;;5033825;28;20087;-63
2024/03/09 05:11:03;;;;;;;12.93;5.70;;;7.80;99.90;;;;;;5034036;28;20116;-63
2024/03/09 05:13:30;;;;;;;8.73;5.75;;;7.80;99.90;;;;;;5033870;28;20041;-64
2024/03/09 05:15:57;;;;;;;8.35;5.05;;;7.90;99.90;;;;;;5032408;28;20049;-64
2024/03/09 05:18:24;;;;;;;10.85;5.45;;;7.90;99.90;;;;;;5033837;28;20508;-64
2024/03/09 05:20:50;;;;;;;10.82;4.90;;;7.90;99.90;;;;;;5033765;28;20037;-64
2024/03/09 05:23:17;;;;;;;9.40;4.47;;;7.90;99.90;;;;;;5033936;28;20041;-63
2024/03/09 05:25:46;;;;;;;7.18;4.43;;;7.90;99.90;;;;;;5033999;28;20073;-63
2024/03/09 05:28:14;;;;;;;7.78;4.32;;;7.90;99.90;;;;;;5033759;28;20130;-64
2024/03/09 05:30:43;;;;;;;8.82;5.07;;;7.90;99.90;;;;;;5033574;28;20049;-63
2024/03/09 05:33:11;;;;;;;8.57;3.60;;;8.00;99.90;;;;;;5033387;28;20045;-64
2024/03/09 05:35:39;;;;;;;8.18;3.38;;;7.90;99.90;;;;;;5032316;28;20406;-63
2024/03/09 05:38:07;;;;;;;7.82;2.90;;;7.90;99.90;;;;;;5033679;28;20047;-63
2024/03/09 05:40:36;;;;;;;8.82;3.20;;;7.90;99.90;;;;;;5033688;28;20490;-63
2024/03/09 05:43:06;;;;;;;6.00;2.92;;;7.90;99.90;;;;;;5034004;28;20049;-63
2024/03/09 05:45:35;;;;;;;6.07;2.65;;;7.80;99.90;;;;;;5033247;28;20037;-64
2024/03/09 05:48:02;;;;;;;4.95;2.13;;;7.80;99.90;;;;;;5033348;28;20557;-63
2024/03/09 05:50:29;;;;;;;5.43;1.95;;;7.80;99.90;;;;;;5033805;28;20049;-63
2024/03/09 05:52:57;;;;;;;3.08;1.30;;;7.70;99.90;;;;;;5033821;28;20541;-63
2024/03/09 05:55:24;;;;;;;2.85;1.40;;;7.60;99.90;;;;;;5032640;28;20075;-63
2024/03/09 05:57:51;;;;;;;4.63;1.75;;;7.50;99.90;;;;;;5033571;28;20075;-63
2024/03/09 06:00:19;;;;;;;2.60;1.13;;;7.40;99.90;;;;;;5033087;28;20042;-64
2024/03/09 06:02:46;;;;;;;4.78;1.30;;;7.30;99.90;;;;;;5032165;28;20387;-64
2024/03/09 06:05:13;;;;;;;5.47;1.10;;;7.20;99.90;;;;;;5031853;28;20110;-67
2024/03/09 06:07:40;;;;;;;3.45;0.85;;;7.20;99.90;;;;;;5033044;28;20060;-66
2024/03/09 06:10:07;;;;;;;3.50;0.90;;;7.10;99.90;;;;;;5033171;28;20491;-65
2024/03/09 06:12:35;;;;;;;3.15;1.00;;;7.00;99.90;;;;;;5032667;28;20041;-66
2024/03/09 06:15:03;;;;;;;3.03;0.80;;;7.00;99.90;;;;;;5032968;28;20064;-65
2024/03/09 06:17:31;;;;;;;4.82;1.02;;;6.90;99.90;;;;;;5033211;28;20107;-66
2024/03/09 06:20:02;;;;;;;4.13;0.90;;;6.90;99.90;;;;;;5033014;28;20124;-66
2024/03/09 06:22:30;;;;;;;6.20;1.08;;;6.80;99.90;;;;;;5033206;28;20680;-66
2024/03/09 06:24:57;;;;;;;5.97;1.05;;;6.70;99.90;;;;;;5032838;28;20071;-66
2024/03/09 06:27:23;;;;;;;4.13;1.05;;;6.70;99.90;;;;;;5032912;28;20037;-64
2024/03/09 06:29:50;;;;;;;4.93;0.80;;;6.70;99.90;;;;;;5033068;28;20045;-64
2024/03/09 06:32:17;;;;;;;5.88;0.90;;;6.60;99.90;;;;;;5033177;28;20046;-63
2024/03/09 06:34:44;;;;;;;3.75;1.00;;;6.60;99.90;;;;;;5032955;28;20056;-63
2024/03/09 06:37:11;;;;;;;3.70;0.85;;;6.60;99.90;;;;;;5032544;28;20370;-64
2024/03/09 06:39:39;;;;;;;4.15;1.00;;;6.60;99.90;;;;;;5032906;28;20041;-65
2024/03/09 06:42:06;;;;;;;3.95;1.05;;;6.50;99.90;;;;;;5032811;28;20072;-65
2024/03/09 06:44:32;;;;;;;4.60;0.93;;;6.50;99.90;;;;;;5032514;28;20121;-66
2024/03/09 06:46:59;;;;;;;3.25;1.13;;;6.50;99.90;;;;;;5032521;28;20053;-66
2024/03/09 06:49:26;;;;;;;4.65;1.00;;;6.50;99.90;;;;;;5032551;28;20048;-66
2024/03/09 06:51:53;;;;;;;4.20;0.98;;;6.50;99.90;;;;;;5033050;28;20042;-66
2024/03/09 06:54:20;;;;;;;5.45;0.93;;;6.50;99.90;;;;;;5032976;28;20181;-66
2024/03/09 06:56:49;;;;;;;3.47;0.80;;;6.50;99.90;;;;;;5032272;28;20049;-66
2024/03/09 06:59:16;;;;;;;3.70;0.80;;;6.50;99.90;;;;;;5031195;28;20041;-66
2024/03/09 07:01:43;;;;;;;5.25;1.10;;;6.50;99.90;;;;;;5032776;28;20088;-66
2024/03/09 07:04:09;;;;;;;4.03;0.88;;;6.50;99.90;;;;;;5032847;28;20482;-66
2024/03/09 07:06:36;;;;;;;4.47;1.05;;;6.50;99.90;;;;;;5033570;28;20095;-66
2024/03/09 07:09:03;;;;;;;4.45;1.30;;;6.50;99.90;;;;;;5036327;28;20039;-65
2024/03/09 07:11:30;;;;;;;4.22;0.98;;;6.50;99.90;;;;;;5036022;28;20051;-66
2024/03/09 07:13:58;;;;;;;3.45;0.90;;;6.50;99.90;;;;;;5036358;28;20056;-66
2024/03/09 07:16:26;;;;;;;8.70;1.65;;;6.60;99.90;;;;;;5036232;28;20045;-65
2024/03/09 07:18:52;;;;;;;4.20;1.30;;;6.60;99.90;;;;;;5035971;28;20038;-65
2024/03/09 07:21:22;;;;;;;3.92;1.30;;;6.60;99.90;;;;;;5036211;28;20548;-65
2024/03/09 07:23:49;;;;;;;5.13;1.52;;;6.60;99.90;;;;;;5035856;28;20525;-66
2024/03/09 07:26:16;;;;;;;3.75;1.60;;;6.70;99.90;;;;;;5042447;28;20385;-66
2024/03/09 07:28:45;;;;;;;3.60;1.33;;;6.70;99.90;;;;;;5055197;28;20044;-66
2024/03/09 07:31:12;;;;;;;3.95;1.75;;;6.70;99.90;;;;;;5055770;28;20060;-65
2024/03/09 07:33:42;;;;;;;6.90;2.28;;;6.70;99.90;;;;;;5054672;28;20049;-65
2024/03/09 07:36:10;;;;;;;6.03;2.25;;;6.80;99.90;;;;;;5055511;28;20459;-66
2024/03/09 07:38:37;;;;;;;6.82;2.40;;;6.80;99.90;;;;;;5056196;28;20059;-65
2024/03/09 07:41:07;;;;;;;7.72;3.10;;;6.80;99.90;;;;;;5055637;28;20115;-66
2024/03/09 07:43:34;;;;;;;5.80;3.03;;;6.90;99.90;;;;;;5054863;28;20049;-65
2024/03/09 07:46:04;;;;;;;7.10;3.00;;;6.90;99.90;;;;;;5054621;28;20425;-66
2024/03/09 07:48:31;;;;;;;6.03;3.28;;;6.90;99.90;;;;;;5054739;28;20454;-66
2024/03/09 07:50:59;;;;;;;6.15;3.25;;;7.00;99.90;;;;;;5055563;28;20394;-65
2024/03/09 07:53:31;;;;;;;5.28;3.35;;;7.00;99.90;;;;;;5055544;28;20044;-66
2024/03/09 07:55:58;;;;;;;5.50;3.67;;;7.00;99.90;;;;;;5055472;28;20364;-66
2024/03/09 07:58:25;;;;;;;7.50;3.97;;;7.10;99.90;;;;;;5055322;28;20041;-63
2024/03/09 08:00:53;;;;;;;11.90;4.10;;;7.10;99.90;;;;;;5055309;28;20450;-63
2024/03/09 08:03:22;;;;;;;9.60;4.50;;;7.10;99.90;;;;;;5054121;28;20453;-63
2024/03/09 08:05:49;;;;;;;6.22;4.45;;;7.10;99.90;;;;;;5055438;28;20155;-63
2024/03/09 08:08:17;;;;;;;8.05;4.30;;;7.20;99.90;;;;;;5055249;28;20068;-63
2024/03/09 08:10:47;;;;;;;14.40;4.32;;;7.30;99.90;;;;;;5055196;28;20048;-63
2024/03/09 08:13:16;;;;;;;8.68;4.57;;;7.40;99.90;;;;;;5054482;28;20135;-63
2024/03/09 08:15:44;;;;;;;7.32;5.00;;;7.50;99.90;;;;;;5053776;28;20355;-64
2024/03/09 08:18:11;;;;;;;6.35;4.50;;;7.60;99.90;;;;;;5055132;28;20037;-63
2024/03/09 08:20:38;;;;;;;9.13;4.53;;;7.70;99.90;;;;;;5055402;28;20033;-63
2024/03/09 08:23:06;;;;;;;8.57;5.30;;;7.80;99.90;;;;;;5053838;28;20045;-64
2024/03/09 08:25:33;;;;;;;9.02;5.72;;;7.80;99.90;;;;;;5055169;28;20439;-63
2024/03/09 08:28:00;;;;;;;9.07;5.22;;;7.90;99.90;;;;;;5055163;28;20149;-64
2024/03/09 08:30:27;;;;;;;7.45;5.40;;;8.00;99.90;;;;;;5053589;28;20443;-63
2024/03/09 08:32:55;;;;;;;11.27;5.50;;;8.10;99.90;;;;;;5055373;28;20140;-64
2024/03/09 08:35:21;;;;;;;7.60;5.35;;;8.10;99.90;;;;;;5054938;28;20120;-63
2024/03/09 08:37:50;;;;;;;12.32;5.50;;;8.20;99.90;;;;;;5054872;28;20045;-64
2024/03/09 08:40:17;;;;;;;7.63;5.40;;;8.30;99.90;;;;;;5054785;28;20045;-64
2024/03/09 08:42:44;;;;;;;9.27;6.40;;;8.40;99.90;;;;;;5054801;28;20049;-63
2024/03/09 08:45:12;;;;;;;8.57;5.95;;;8.50;99.90;;;;;;5054550;28;20037;-63
2024/03/09 08:47:41;;;;;;;8.18;5.85;;;8.50;99.90;;;;;;5054987;28;20045;-63
2024/03/09 08:50:11;;;;;;;8.80;5.90;;;8.70;99.90;;;;;;5054599;28;20045;-64
2024/03/09 08:52:38;;;;;;;9.75;6.63;;;8.70;99.90;;;;;;5054630;28;20470;-64
2024/03/09 08:55:10;;;;;;;8.77;6.05;;;8.70;99.90;;;;;;5054360;28;20073;-66
2024/03/09 08:57:37;;;;;;;8.68;5.95;;;8.80;99.90;;;;;;5054080;28;20063;-65
2024/03/09 09:00:05;;;;;;;10.45;6.13;;;8.80;99.90;;;;;;5054242;28;20052;-66
2024/03/09 09:02:32;;;;;;;8.68;5.85;;;8.90;99.90;;;;;;5054236;28;20084;-65
2024/03/09 09:04:59;;;;;;;7.60;5.82;;;8.90;99.90;;;;;;5053833;28;20427;-66
2024/03/09 09:07:26;;;;;;;10.20;6.22;;;8.90;99.90;;;;;;5052847;28;20076;-65
2024/03/09 09:09:53;;;;;;;9.70;6.05;;;9.00;99.90;;;;;;5053776;28;20502;-64
2024/03/09 09:12:20;;;;;;;7.32;5.80;;;9.10;99.90;;;;;;5054066;28;20068;-65
2024/03/09 09:14:47;;;;;;;9.80;6.40;;;9.20;99.90;;;;;;5053900;28;20049;-65
2024/03/09 09:17:14;;;;;;;9.68;6.22;;;9.30;99.90;;;;;;5054027;28;20049;-64
2024/03/09 09:19:40;;;;;;;7.47;5.35;;;9.30;99.90;;;;;;5052740;28;20048;-64
2024/03/09 09:22:09;;;;;;;8.35;5.90;;;9.40;99.90;;;;;;5054133;28;20099;-64
2024/03/09 09:24:37;;;;;;;8.65;5.90;;;9.50;99.90;;;;;;5053946;28;20037;-65
2024/03/09 09:27:04;;;;;;;8.23;5.90;;;9.50;99.90;;;;;;5049708;28;20061;-65
2024/03/09 09:29:31;;;;;;;7.32;5.82;;;9.50;99.90;;;;;;5051994;28;20132;-65
2024/03/09 09:32:00;;;;;;;8.48;5.38;;;9.60;99.90;;;;;;5053773;28;20102;-64
2024/03/09 09:34:33;;;;;;;6.45;5.32;;;9.70;99.90;;;;;;5053591;28;20063;-65
2024/03/09 09:37:00;;;;;;;7.13;5.75;;;9.80;99.90;;;;;;5053766;28;20076;-64
2024/03/09 09:39:33;;;;;;;9.02;5.10;;;9.80;99.90;;;;;;5053231;28;20036;-64
2024/03/09 09:42:00;;;;;;;8.55;5.30;;;9.90;99.90;;;;;;5053648;28;20091;-65
2024/03/09 09:44:28;;;;;;;8.68;5.35;;;9.90;99.90;;;;;;5053506;28;20037;-65
2024/03/09 09:46:55;;;;;;;8.85;5.60;;;10.00;99.90;;;;;;5053809;28;20067;-64
2024/03/09 09:49:22;;;;;;;8.15;5.55;;;10.10;99.90;;;;;;5053453;28;20438;-64
2024/03/09 09:51:48;;;;;;;8.15;5.82;;;10.20;99.90;;;;;;5039280;28;20047;-64
2024/03/09 09:54:15;;;;;;;7.15;5.22;;;10.30;99.90;;;;;;5033070;28;20057;-64
2024/03/09 09:56:42;;;;;;;7.88;4.82;;;10.40;99.90;;;;;;5033103;28;20042;-64
2024/03/09 09:59:09;;;;;;;7.35;5.13;;;10.50;99.90;;;;;;5033438;28;20041;-64
2024/03/09 10:01:36;;;;;;;9.15;5.35;;;10.50;99.90;;;;;;5033251;28;20113;-64
2024/03/09 10:04:04;;;;;;;7.68;5.20;;;10.60;99.90;;;;;;5032491;28;20045;-64
2024/03/09 10:06:30;;;;;;;6.28;4.80;;;10.70;99.90;;;;;;5032793;28;20103;-64
2024/03/09 10:08:59;;;;;;;6.32;4.30;;;10.80;99.90;;;;;;5032945;28;20049;-64
2024/03/09 10:11:27;;;;;;;6.00;4.20;;;11.00;99.90;;;;;;5033363;28;20053;-65
2024/03/09 10:13:55;;;;;;;7.43;4.50;;;11.10;99.90;;;;;;5033511;28;20052;-64
2024/03/09 10:16:22;;;;;;;5.75;4.30;;;11.10;99.90;;;;;;5033142;28;20444;-65
2024/03/09 10:18:49;;;;;;;7.80;4.15;;;11.20;99.90;;;;;;5032090;28;20037;-64
2024/03/09 10:21:16;;;;;;;6.72;4.07;;;11.20;99.90;;;;;;5033298;28;20033;-64
2024/03/09 10:23:44;;;;;;;6.07;3.88;;;11.20;99.90;;;;;;5033176;28;20060;-65
2024/03/09 10:26:12;;;;;;;5.78;3.75;;;11.20;99.90;;;;;;5033371;28;20466;-65
2024/03/09 10:28:39;;;;;;;5.15;4.00;;;11.20;99.90;;;;;;5033073;28;20092;-64
2024/03/09 10:31:09;;;;;;;6.15;4.00;;;11.20;99.90;;;;;;5033189;28;20454;-65
2024/03/09 10:33:36;;;;;;;7.35;3.70;;;11.10;99.90;;;;;;5032898;28;20037;-65
2024/03/09 10:36:03;;;;;;;6.07;3.90;;;11.10;99.90;;;;;;5033151;28;20045;-65
2024/03/09 10:38:30;;;;;;;5.88;3.42;;;11.10;99.90;;;;;;5031866;28;20116;-65
2024/03/09 10:41:00;;;;;;;5.40;3.65;;;11.00;99.90;;;;;;5032844;28;20045;-65
2024/03/09 10:43:28;;;;;;;7.05;3.50;;;11.10;99.90;;;;;;5036512;28;20075;-65
2024/03/09 10:45:55;;;;;;;7.63;3.50;;;11.10;99.90;;;;;;5036849;28;20037;-67
2024/03/09 10:48:24;;;;;;;5.50;3.10;;;11.10;99.90;;;;;;5035840;28;20073;-65
2024/03/09 10:50:51;;;;;;;4.50;2.60;;;11.20;99.90;;;;;;5037104;28;20116;-66
2024/03/09 10:53:18;;;;;;;5.90;2.65;;;11.20;99.90;;;;;;5036947;28;20045;-65
2024/03/09 10:55:47;;;;;;;6.32;2.08;;;11.30;99.90;;;;;;5036780;28;20049;-63
2024/03/09 10:58:15;;;;;;;3.97;2.30;;;11.40;99.90;;;;;;5036510;28;20037;-64
2024/03/09 11:00:42;;;;;;;4.05;1.98;;;11.50;99.90;;;;;;5036947;28;20199;-63
2024/03/09 11:03:08;;;;;;;2.95;1.75;;;11.70;99.90;;;;;;5036939;28;20038;-64
2024/03/09 11:05:37;;;;;;;4.22;1.70;;;11.70;99.90;;;;;;5036612;28;20475;-63
2024/03/09 11:08:04;;;;;;;6.22;2.00;;;11.70;99.90;;;;;;5037093;28;20052;-63
2024/03/09 11:10:31;;;;;;;3.42;1.60;;;11.70;99.90;;;;;;5036448;28;20096;-63
2024/03/09 11:12:57;;;;;;;4.60;2.03;;;11.70;99.90;;;;;;5036752;28;20076;-64
2024/03/09 11:15:25;;;;;;;8.55;4.65;;;11.80;99.90;;;;;;5035943;28;20065;-64
2024/03/09 11:17:54;;;;;;;9.73;5.68;;;11.90;99.90;;;;;;5034699;28;20056;-65
2024/03/09 11:20:20;;;;;;;5.65;4.15;;;12.00;99.90;;;;;;5036384;28;20402;-64
2024/03/09 11:22:47;;;;;;;7.47;5.57;;;12.20;99.90;;;;;;5036351;28;20486;-64
2024/03/09 11:25:15;;;;;;;13.38;8.05;;;12.30;99.90;;;;;;5036259;28;20041;-64
2024/03/09 11:27:41;;;;;;;14.80;9.25;;;12.40;99.90;;;;;;5036510;28;20042;-63
2024/03/09 11:30:08;;;;;;;13.43;8.85;;;12.40;99.90;;;;;;5036273;28;20041;-63
2024/03/09 11:32:38;;;;;;;13.07;9.10;;;12.40;99.90;;;;;;5036498;28;20041;-64
2024/03/09 11:35:07;;;;;;;10.77;8.65;;;12.40;99.90;;;;;;5035877;28;20060;-64
2024/03/09 11:37:34;;;;;;;10.90;8.25;;;12.30;99.90;;;;;;5035596;28;20128;-64
2024/03/09 11:40:01;;;;;;;10.52;8.80;;;12.10;99.90;;;;;;5035885;28;20104;-63
2024/03/09 11:42:29;;;;;;;13.73;9.07;;;12.00;99.90;;;;;;5034662;28;20037;-63
2024/03/09 11:44:57;;;;;;;15.13;8.85;;;11.90;99.90;;;;;;5035829;28;20033;-63
2024/03/09 11:47:24;;;;;;;13.23;9.20;;;11.90;99.90;;;;;;5035554;28;20039;-63
2024/03/09 11:49:51;;;;;;;11.40;9.15;;;11.90;99.90;;;;;;5035461;28;20151;-64
2024/03/09 11:52:17;;;;;;;14.88;10.05;;;11.80;99.90;;;;;;5035193;28;20046;-64
2024/03/09 11:54:45;;;;;;;13.93;9.65;;;11.90;99.90;;;;;;5035978;28;20095;-63
2024/03/09 11:57:12;;;;;;;12.20;9.40;;;11.80;99.90;;;;;;5035435;28;20046;-64
2024/03/09 11:59:39;;;;;;;12.98;9.63;;;11.70;99.90;;;;;;5035693;28;20056;-63
2024/03/09 12:02:06;;;;;;;14.68;9.68;;;11.60;99.90;;;;;;5035363;28;20040;-63
2024/03/09 12:04:35;;;;;;;14.88;9.68;;;11.60;99.90;;;;;;5035801;28;20099;-63
2024/03/09 12:07:02;;;;;;;12.27;8.68;;;11.70;99.90;;;;;;5034416;28;20041;-63
2024/03/09 12:09:29;;;;;;;15.20;9.60;;;11.70;99.90;;;;;;5035747;28;20060;-63
2024/03/09 12:11:56;;;;;;;15.40;9.93;;;11.70;99.90;;;;;;5035267;28;20116;-63
2024/03/09 12:14:23;;;;;;;12.73;8.98;;;11.70;99.90;;;;;;5035526;28;20049;-63
2024/03/09 12:16:51;;;;;;;12.30;9.10;;;11.70;99.90;;;;;;5033930;28;20059;-63
2024/03/09 12:19:18;;;;;;;16.58;9.68;;;11.70;99.90;;;;;;5035066;28;20046;-63
2024/03/09 12:21:45;;;;;;;12.88;9.18;;;11.80;99.90;;;;;;5035141;28;20041;-62
2024/03/09 12:24:12;;;;;;;16.52;9.80;;;11.80;99.90;;;;;;5034617;28;20037;-62
2024/03/09 12:26:40;;;;;;;15.40;9.68;;;11.70;99.90;;;;;;5043589;28;20040;-63
2024/03/09 12:29:07;;;;;;;17.33;10.52;;;11.80;99.90;;;;;;5037747;28;20038;-63
2024/03/09 12:31:34;;;;;;;16.60;10.90;;;11.70;99.90;;;;;;5034804;28;20079;-63
2024/03/09 12:34:04;;;;;;;15.10;11.05;;;11.70;99.90;;;;;;5016676;28;20072;-63
2024/03/09 12:36:31;;;;;;;15.57;11.48;;;11.70;99.90;;;;;;5045321;28;20045;-63
2024/03/09 12:38:58;;;;;;;17.15;11.20;;;11.70;99.90;;;;;;5053311;28;20098;-63
2024/03/09 12:41:25;;;;;;;15.15;11.50;;;11.80;99.90;;;;;;5056329;28;20071;-64
2024/03/09 12:43:55;;;;;;;14.93;10.70;;;11.70;99.90;;;;;;5051203;28;20041;-63
2024/03/09 12:46:22;;;;;;;19.50;11.23;;;11.60;99.90;;;;;;5014330;28;20046;-62
2024/03/09 12:48:49;;;;;;;16.55;11.93;;;11.60;99.90;;;;;;5013997;28;20041;-64